createdAt,value
2023-05-03T00:00:08.776Z,8.00
2023-05-03T00:02:39.259Z,7.95
2023-05-03T00:05:08.507Z,7.98
2023-05-03T00:07:35.665Z,7.94
2023-05-03T00:10:02.341Z,7.91
2023-05-03T00:12:30.002Z,7.87
2023-05-03T00:14:56.572Z,7.84
2023-05-03T00:17:23.262Z,7.84
2023-05-03T00:19:49.999Z,7.88
2023-05-03T00:22:16.777Z,7.86
2023-05-03T00:24:43.382Z,7.91
2023-05-03T00:27:10.031Z,7.89
2023-05-03T00:29:36.565Z,7.92
2023-05-03T00:32:03.167Z,7.95
2023-05-03T00:34:29.821Z,7.92
2023-05-03T00:36:56.523Z,7.95
2023-05-03T00:39:23.134Z,7.97
2023-05-03T00:41:49.692Z,7.98
2023-05-03T00:44:16.558Z,7.99
2023-05-03T00:46:43.185Z,7.95
2023-05-03T00:49:09.909Z,7.96
2023-05-03T00:51:37.067Z,7.93
2023-05-03T00:54:04.405Z,7.88
2023-05-03T00:56:37.994Z,7.94
2023-05-03T00:59:15.038Z,7.88
2023-05-03T01:01:41.612Z,7.90
2023-05-03T01:04:08.266Z,7.88
2023-05-03T01:06:37.771Z,7.82
2023-05-03T01:09:23.071Z,7.84
2023-05-03T01:12:05.566Z,7.79
2023-05-03T01:14:47.185Z,7.77
2023-05-03T01:17:14.425Z,7.72
2023-05-03T01:19:45.927Z,7.72
2023-05-03T01:22:31.370Z,7.70
2023-05-03T01:25:07.732Z,7.70
2023-05-03T01:27:34.491Z,7.67
2023-05-03T01:30:01.344Z,7.71
2023-05-03T01:32:49.547Z,7.65
2023-05-03T01:35:20.789Z,7.61
2023-05-03T01:37:48.231Z,7.63
2023-05-03T01:40:16.955Z,7.64
2023-05-03T01:42:43.542Z,7.61
2023-05-03T01:45:11.140Z,7.63
2023-05-03T01:47:37.860Z,7.62
2023-05-03T01:50:04.791Z,7.63
2023-05-03T01:52:31.536Z,7.68
2023-05-03T01:54:59.581Z,7.73
2023-05-03T01:57:26.270Z,7.71
2023-05-03T01:59:52.800Z,7.71
2023-05-03T02:02:19.378Z,7.63
2023-05-03T02:04:46.077Z,7.67
2023-05-03T02:07:12.713Z,7.68
2023-05-03T02:09:39.243Z,7.70
2023-05-03T02:12:05.905Z,7.69
2023-05-03T02:14:33.150Z,7.80
2023-05-03T02:17:00.560Z,7.79
2023-05-03T02:19:27.364Z,7.78
2023-05-03T02:21:53.933Z,7.77
2023-05-03T02:24:20.594Z,7.80
2023-05-03T02:26:47.232Z,7.82
2023-05-03T02:29:13.804Z,7.83
2023-05-03T02:31:40.386Z,7.83
2023-05-03T02:34:07.017Z,7.86
2023-05-03T02:36:33.583Z,7.87
2023-05-03T02:39:00.156Z,7.82
2023-05-03T02:41:27.219Z,7.75
2023-05-03T02:43:53.767Z,7.84
2023-05-03T02:46:20.606Z,7.90
2023-05-03T02:48:47.183Z,7.90
2023-05-03T02:51:13.993Z,7.91
2023-05-03T02:53:40.774Z,7.96
2023-05-03T02:56:07.557Z,7.90
2023-05-03T02:58:34.139Z,7.96
2023-05-03T03:01:00.754Z,7.94
2023-05-03T03:03:27.396Z,7.95
2023-05-03T03:05:53.975Z,7.94
2023-05-03T03:08:20.540Z,7.98
2023-05-03T03:10:47.208Z,7.97
2023-05-03T03:13:13.845Z,7.90
2023-05-03T03:15:40.558Z,7.97
2023-05-03T03:18:07.426Z,7.99
2023-05-03T03:20:34.041Z,8.03
2023-05-03T03:23:00.583Z,8.01
2023-05-03T03:25:27.092Z,8.04
2023-05-03T03:27:53.765Z,8.05
2023-05-03T03:30:20.266Z,8.06
2023-05-03T03:32:46.902Z,8.05
2023-05-03T03:35:13.449Z,8.11
2023-05-03T03:37:40.242Z,8.10
2023-05-03T03:40:07.863Z,8.15
2023-05-03T03:42:34.435Z,8.12
2023-05-03T03:45:01.000Z,8.17
2023-05-03T03:47:27.760Z,8.16
2023-05-03T03:49:54.386Z,8.21
2023-05-03T03:52:20.967Z,8.29
2023-05-03T03:54:47.496Z,8.26
2023-05-03T03:57:14.064Z,8.20
2023-05-03T03:59:41.047Z,8.26
2023-05-03T04:02:07.677Z,8.33
2023-05-03T04:04:34.309Z,8.26
2023-05-03T04:07:01.151Z,8.33
2023-05-03T04:09:27.754Z,8.34
2023-05-03T04:11:54.592Z,8.22
2023-05-03T04:14:21.634Z,8.26
2023-05-03T04:16:48.307Z,8.25
2023-05-03T04:19:17.880Z,8.28
2023-05-03T04:21:44.948Z,8.27
2023-05-03T04:24:15.103Z,8.29
2023-05-03T04:26:41.712Z,8.32
2023-05-03T04:29:08.316Z,8.33
2023-05-03T04:31:35.114Z,8.31
2023-05-03T04:34:01.789Z,8.26
2023-05-03T04:36:29.997Z,8.20
2023-05-03T04:38:56.957Z,8.18
2023-05-03T04:41:24.493Z,8.17
2023-05-03T04:43:51.401Z,8.09
2023-05-03T04:46:18.613Z,8.04
2023-05-03T04:48:46.089Z,7.94
2023-05-03T04:51:12.642Z,7.89
2023-05-03T04:53:40.253Z,7.79
2023-05-03T04:56:07.639Z,7.67
2023-05-03T04:58:34.219Z,7.66
2023-05-03T05:01:01.076Z,7.63
2023-05-03T05:03:27.800Z,7.56
2023-05-03T05:05:54.422Z,7.51
2023-05-03T05:08:21.237Z,7.45
2023-05-03T05:10:47.946Z,7.51
2023-05-03T05:13:14.606Z,7.49
2023-05-03T05:15:41.328Z,7.61
2023-05-03T05:18:09.324Z,7.67
2023-05-03T05:20:36.229Z,7.67
2023-05-03T05:23:02.910Z,7.67
2023-05-03T05:25:29.575Z,7.79
2023-05-03T05:27:56.170Z,7.89
2023-05-03T05:30:23.483Z,7.94
2023-05-03T05:32:50.084Z,8.02
2023-05-03T05:35:18.926Z,8.10
2023-05-03T05:37:45.589Z,8.23
2023-05-03T05:40:12.592Z,8.32
2023-05-03T05:42:39.244Z,8.37
2023-05-03T05:45:07.947Z,8.52
2023-05-03T05:47:34.665Z,8.58
2023-05-03T05:50:01.495Z,8.69
2023-05-03T05:52:29.821Z,8.79
2023-05-03T05:54:56.711Z,8.95
2023-05-03T05:57:23.254Z,9.07
2023-05-03T05:59:51.087Z,9.12
2023-05-03T06:02:18.879Z,9.30
2023-05-03T06:04:46.938Z,9.50
2023-05-03T06:07:14.630Z,9.60
2023-05-03T06:09:41.521Z,9.70
2023-05-03T06:12:08.254Z,9.81
2023-05-03T06:14:34.820Z,9.92
2023-05-03T06:17:02.184Z,10.01
2023-05-03T06:19:28.757Z,10.07
2023-05-03T06:21:55.291Z,10.16
2023-05-03T06:24:21.981Z,10.31
2023-05-03T06:26:48.788Z,10.53
2023-05-03T06:29:15.431Z,10.70
2023-05-03T06:31:42.153Z,10.86
2023-05-03T06:34:10.405Z,10.94
2023-05-03T06:36:37.885Z,10.94
2023-05-03T06:39:04.731Z,11.01
2023-05-03T06:41:32.958Z,11.06
2023-05-03T06:43:59.516Z,10.96
2023-05-03T06:46:27.400Z,10.96
2023-05-03T06:48:56.388Z,10.93
2023-05-03T06:51:27.458Z,11.00
2023-05-03T06:53:54.998Z,11.07
2023-05-03T06:56:21.885Z,11.19
2023-05-03T06:58:48.674Z,11.34
2023-05-03T07:01:15.631Z,11.46
2023-05-03T07:03:42.297Z,11.60
2023-05-03T07:06:08.995Z,11.65
2023-05-03T07:08:35.751Z,11.63
2023-05-03T07:11:02.261Z,11.76
2023-05-03T07:13:28.793Z,11.85
2023-05-03T07:15:55.517Z,11.77
2023-05-03T07:18:22.116Z,11.79
2023-05-03T07:20:48.887Z,11.80
2023-05-03T07:23:15.753Z,11.82
2023-05-03T07:25:42.839Z,11.85
2023-05-03T07:28:09.471Z,11.91
2023-05-03T07:30:36.107Z,11.95
2023-05-03T07:33:02.819Z,11.82
2023-05-03T07:35:29.767Z,11.94
2023-05-03T07:37:57.060Z,11.92
2023-05-03T07:40:23.696Z,11.87
2023-05-03T07:42:50.326Z,12.01
2023-05-03T07:45:17.100Z,12.19
2023-05-03T07:47:43.702Z,12.19
2023-05-03T07:50:10.428Z,12.26
2023-05-03T07:52:37.235Z,12.30
2023-05-03T07:55:04.183Z,12.32
2023-05-03T07:57:31.112Z,12.38
2023-05-03T07:59:57.672Z,12.39
2023-05-03T08:02:24.351Z,12.44
2023-05-03T08:04:51.128Z,12.34
2023-05-03T08:07:17.762Z,12.34
2023-05-03T08:09:44.329Z,12.38
2023-05-03T08:12:11.072Z,12.50
2023-05-03T08:14:37.755Z,12.55
2023-05-03T08:17:06.945Z,12.61
2023-05-03T08:19:33.462Z,12.70
2023-05-03T08:22:00.003Z,12.74
2023-05-03T08:24:27.007Z,12.55
2023-05-03T08:26:53.803Z,12.69
2023-05-03T08:29:21.122Z,12.62
2023-05-03T08:31:47.704Z,12.59
2023-05-03T08:34:14.404Z,12.59
2023-05-03T08:36:41.613Z,12.44
2023-05-03T08:39:09.397Z,12.22
2023-05-03T08:41:36.067Z,12.19
2023-05-03T08:44:05.637Z,12.18
2023-05-03T08:46:32.334Z,12.24
2023-05-03T08:48:59.350Z,12.24
2023-05-03T08:51:27.709Z,12.15
2023-05-03T08:53:54.456Z,12.23
2023-05-03T08:56:44.095Z,12.27
2023-05-03T08:59:11.711Z,12.01
2023-05-03T09:01:40.056Z,11.87
2023-05-03T09:04:07.784Z,11.46
2023-05-03T09:06:35.196Z,11.43
2023-05-03T09:09:02.159Z,11.26
2023-05-03T09:11:30.266Z,11.07
2023-05-03T09:14:13.015Z,10.91
2023-05-03T09:16:40.993Z,10.47
2023-05-03T09:19:09.547Z,10.26
2023-05-03T09:21:36.457Z,10.08
2023-05-03T09:24:11.222Z,9.99
2023-05-03T09:26:38.376Z,9.95
2023-05-03T09:29:05.370Z,9.84
2023-05-03T09:31:33.030Z,9.78
2023-05-03T09:33:59.974Z,9.72
2023-05-03T09:36:27.777Z,9.73
2023-05-03T09:38:55.563Z,9.78
2023-05-03T09:41:28.680Z,9.87
2023-05-03T09:43:56.831Z,10.03
2023-05-03T09:46:28.674Z,10.12
2023-05-03T09:48:57.056Z,10.19
2023-05-03T09:51:24.410Z,10.23
2023-05-03T09:53:51.544Z,10.32
2023-05-03T09:56:20.778Z,10.34
2023-05-03T09:58:47.824Z,10.39
2023-05-03T10:01:15.113Z,10.55
2023-05-03T10:03:44.130Z,10.83
2023-05-03T10:06:31.954Z,11.04
2023-05-03T10:09:06.580Z,11.29
2023-05-03T10:11:34.324Z,11.35
2023-05-03T10:14:01.245Z,11.40
2023-05-03T10:16:32.082Z,11.52
2023-05-03T10:19:14.012Z,11.63
2023-05-03T10:21:47.062Z,11.75
2023-05-03T10:24:14.457Z,11.87
2023-05-03T10:26:41.955Z,11.93
2023-05-03T10:29:28.862Z,11.96
2023-05-03T10:31:55.539Z,12.06
2023-05-03T10:34:25.690Z,12.05
2023-05-03T10:36:53.411Z,11.85
2023-05-03T10:39:20.688Z,11.81
2023-05-03T10:42:03.674Z,11.70
2023-05-03T10:44:40.537Z,11.60
2023-05-03T10:47:16.694Z,11.69
2023-05-03T10:49:43.416Z,11.86
2023-05-03T10:52:28.726Z,11.92
2023-05-03T10:54:55.264Z,12.19
2023-05-03T10:57:27.409Z,12.49
2023-05-03T10:59:54.723Z,12.90
2023-05-03T11:02:27.451Z,13.60
2023-05-03T11:04:56.754Z,14.60
2023-05-03T11:07:23.450Z,15.61
2023-05-03T11:09:49.988Z,16.17
2023-05-03T11:12:17.189Z,16.67
2023-05-03T11:14:43.827Z,17.41
2023-05-03T11:17:10.690Z,18.24
2023-05-03T11:19:37.975Z,18.20
2023-05-03T11:22:04.603Z,18.23
2023-05-03T11:24:31.212Z,18.88
2023-05-03T11:26:57.861Z,19.49
2023-05-03T11:29:25.040Z,19.70
2023-05-03T11:31:52.489Z,19.18
2023-05-03T11:34:19.268Z,18.79
2023-05-03T11:36:45.821Z,18.48
2023-05-03T11:39:13.152Z,18.33
2023-05-03T11:41:41.849Z,18.08
2023-05-03T11:46:41.729Z,18.81
2023-05-03T11:49:08.448Z,18.09
2023-05-03T11:51:35.081Z,18.17
2023-05-03T11:54:17.097Z,18.62
2023-05-03T11:56:52.812Z,19.09
2023-05-03T11:59:20.158Z,18.62
2023-05-03T12:01:49.468Z,18.12
2023-05-03T12:04:17.034Z,17.54
2023-05-03T12:06:52.727Z,16.88
2023-05-03T12:09:22.906Z,17.30
2023-05-03T12:11:51.869Z,17.59
2023-05-03T12:14:20.031Z,17.91
2023-05-03T12:16:50.353Z,17.55
2023-05-03T12:19:44.070Z,16.65
2023-05-03T12:22:25.765Z,15.94
2023-05-03T12:24:53.916Z,15.95
2023-05-03T12:27:23.423Z,15.93
2023-05-03T12:29:51.867Z,16.59
2023-05-03T12:32:18.651Z,17.68
2023-05-03T12:34:46.945Z,18.07
2023-05-03T12:37:16.932Z,18.37
2023-05-03T12:39:46.177Z,19.14
2023-05-03T12:42:19.520Z,18.70
2023-05-03T12:44:48.547Z,17.63
2023-05-03T12:47:19.418Z,16.92
2023-05-03T12:49:53.844Z,16.37
2023-05-03T12:52:37.216Z,15.81
2023-05-03T12:55:10.379Z,15.40
2023-05-03T12:57:38.346Z,14.99
2023-05-03T13:00:13.560Z,15.43
2023-05-03T13:03:20.223Z,16.52
2023-05-03T13:05:35.101Z,17.42
2023-05-03T13:08:09.312Z,17.32
2023-05-03T13:10:37.559Z,16.57
2023-05-03T13:13:04.339Z,16.26
2023-05-03T13:15:31.247Z,15.72
2023-05-03T13:18:01.589Z,15.08
2023-05-03T13:20:28.997Z,14.88
2023-05-03T13:22:55.789Z,14.38
2023-05-03T13:25:22.326Z,14.22
2023-05-03T13:27:52.302Z,13.97
2023-05-03T13:30:21.326Z,13.92
2023-05-03T13:32:47.883Z,13.97
2023-05-03T13:35:14.445Z,14.31
2023-05-03T13:37:41.036Z,15.12
2023-05-03T13:40:08.121Z,16.44
2023-05-03T13:42:35.092Z,16.65
2023-05-03T13:45:01.743Z,16.30
2023-05-03T13:47:41.906Z,15.86
2023-05-03T13:50:16.692Z,15.29
2023-05-03T13:52:44.791Z,14.96
2023-05-03T13:55:11.668Z,14.80
2023-05-03T13:57:38.261Z,14.67
2023-05-03T14:00:07.566Z,14.56
2023-05-03T14:02:34.365Z,14.28
2023-05-03T14:05:00.903Z,14.13
2023-05-03T14:07:27.573Z,14.07
2023-05-03T14:09:54.202Z,14.02
2023-05-03T14:12:20.854Z,13.96
2023-05-03T14:14:47.412Z,13.72
2023-05-03T14:17:14.158Z,13.55
2023-05-03T14:19:41.674Z,13.59
2023-05-03T14:22:08.478Z,13.59
2023-05-03T14:24:35.048Z,13.60
2023-05-03T14:27:01.834Z,13.63
2023-05-03T14:29:28.610Z,13.64
2023-05-03T14:31:57.396Z,13.58
2023-05-03T14:34:23.974Z,13.61
2023-05-03T14:36:51.189Z,13.54
2023-05-03T14:39:17.736Z,13.48
2023-05-03T14:41:44.405Z,13.45
2023-05-03T14:44:10.921Z,13.42
2023-05-03T14:46:38.080Z,13.46
2023-05-03T14:49:05.184Z,13.34
2023-05-03T14:51:32.406Z,13.37
2023-05-03T14:53:59.392Z,13.26
2023-05-03T14:56:26.190Z,13.29
2023-05-03T14:58:52.798Z,13.41
2023-05-03T15:01:20.214Z,13.33
2023-05-03T15:03:46.981Z,13.33
2023-05-03T15:06:13.632Z,13.32
2023-05-03T15:08:40.270Z,13.20
2023-05-03T15:11:07.882Z,13.08
2023-05-03T15:13:34.944Z,13.03
2023-05-03T15:16:01.743Z,12.96
2023-05-03T15:18:28.422Z,13.02
2023-05-03T15:20:55.239Z,13.04
2023-05-03T15:23:21.767Z,13.01
2023-05-03T15:25:48.379Z,13.00
2023-05-03T15:28:15.050Z,12.96
2023-05-03T15:30:41.723Z,12.98
2023-05-03T15:33:10.877Z,12.92
2023-05-03T15:35:41.346Z,12.80
2023-05-03T15:38:08.454Z,12.79
2023-05-03T15:40:35.195Z,12.77
2023-05-03T15:43:01.825Z,12.60
2023-05-03T15:45:29.034Z,12.52
2023-05-03T15:47:58.861Z,12.47
2023-05-03T15:50:25.735Z,12.55
2023-05-03T15:52:52.298Z,12.46
2023-05-03T15:55:19.332Z,12.50
2023-05-03T15:57:45.980Z,12.48
2023-05-03T16:00:13.300Z,12.47
2023-05-03T16:02:40.342Z,12.40
2023-05-03T16:05:07.377Z,12.44
2023-05-03T16:07:34.097Z,12.43
2023-05-03T16:10:00.939Z,12.34
2023-05-03T16:12:27.829Z,12.33
2023-05-03T16:14:55.583Z,12.27
2023-05-03T16:17:22.493Z,12.19
2023-05-03T16:19:49.059Z,12.09
2023-05-03T16:22:16.947Z,11.79
2023-05-03T16:24:44.063Z,11.79
2023-05-03T16:27:10.729Z,11.70
2023-05-03T16:29:39.027Z,11.64
2023-05-03T16:32:09.730Z,11.65
2023-05-03T16:34:36.917Z,11.57
2023-05-03T16:37:03.902Z,11.52
2023-05-03T16:39:31.046Z,11.51
2023-05-03T16:41:57.641Z,11.46
2023-05-03T16:44:24.957Z,11.44
2023-05-03T16:46:51.736Z,11.38
2023-05-03T16:49:18.453Z,11.23
2023-05-03T16:51:45.138Z,11.13
2023-05-03T16:54:12.834Z,11.07
2023-05-03T16:56:39.404Z,10.93
2023-05-03T16:59:06.001Z,10.84
2023-05-03T17:01:32.908Z,10.83
2023-05-03T17:03:59.606Z,10.63
2023-05-03T17:06:27.337Z,10.58
2023-05-03T17:08:54.422Z,10.42
2023-05-03T17:11:22.408Z,10.27
2023-05-03T17:13:49.089Z,10.21
2023-05-03T17:16:15.915Z,10.13
2023-05-03T17:18:42.994Z,10.03
2023-05-03T17:21:10.212Z,10.01
2023-05-03T17:23:38.219Z,10.01
2023-05-03T17:26:05.858Z,10.01
2023-05-03T17:28:32.718Z,9.97
2023-05-03T17:30:59.443Z,9.99
2023-05-03T17:33:26.216Z,9.98
2023-05-03T17:35:53.255Z,9.97
2023-05-03T17:38:19.832Z,9.94
2023-05-03T17:40:46.508Z,9.90
2023-05-03T17:43:13.802Z,9.85
2023-05-03T17:45:41.432Z,9.84
2023-05-03T17:48:08.011Z,9.85
2023-05-03T17:50:34.634Z,9.88
2023-05-03T17:53:01.374Z,9.89
2023-05-03T17:55:28.154Z,9.85
2023-05-03T17:57:54.757Z,9.84
2023-05-03T18:00:22.488Z,9.80
2023-05-03T18:02:49.406Z,9.90
2023-05-03T18:05:16.402Z,9.90
2023-05-03T18:07:43.421Z,9.84
2023-05-03T18:10:14.506Z,9.76
2023-05-03T18:12:41.444Z,9.74
2023-05-03T18:15:08.614Z,9.71
2023-05-03T18:17:35.169Z,9.57
2023-05-03T18:20:02.283Z,9.50
2023-05-03T18:22:29.988Z,9.30
2023-05-03T18:25:02.106Z,9.24
2023-05-03T18:27:29.723Z,9.08
2023-05-03T18:29:56.297Z,9.05
2023-05-03T18:32:23.957Z,8.97
2023-05-03T18:34:50.678Z,8.92
2023-05-03T18:37:17.767Z,8.94
2023-05-03T18:39:44.439Z,8.76
2023-05-03T18:42:11.288Z,8.76
2023-05-03T18:44:39.684Z,8.66
2023-05-03T18:47:07.731Z,8.51
2023-05-03T18:49:34.402Z,8.45
2023-05-03T18:52:01.337Z,8.41
2023-05-03T18:54:28.016Z,8.40
2023-05-03T18:56:55.361Z,8.37
2023-05-03T18:59:21.971Z,8.35
2023-05-03T19:01:48.675Z,8.35
2023-05-03T19:04:15.828Z,8.34
2023-05-03T19:06:42.771Z,8.34
2023-05-03T19:09:13.671Z,8.36
2023-05-03T19:11:41.549Z,8.39
2023-05-03T19:14:08.537Z,8.38
2023-05-03T19:16:35.299Z,8.39
2023-05-03T19:19:02.305Z,8.41
2023-05-03T19:21:29.332Z,8.41
2023-05-03T19:23:55.922Z,8.40
2023-05-03T19:26:22.548Z,8.43
2023-05-03T19:28:49.201Z,8.41
2023-05-03T19:31:15.844Z,8.44
2023-05-03T19:33:42.452Z,8.45
2023-05-03T19:36:12.565Z,8.41
2023-05-03T19:38:39.195Z,8.38
2023-05-03T19:41:09.573Z,8.31
2023-05-03T19:43:36.240Z,8.29
2023-05-03T19:46:02.952Z,8.28
2023-05-03T19:48:29.739Z,8.18
2023-05-03T19:50:56.321Z,8.08
2023-05-03T19:53:23.856Z,7.95
2023-05-03T19:56:00.880Z,7.83
2023-05-03T19:58:28.013Z,7.77
2023-05-03T20:00:54.735Z,7.72
2023-05-03T20:03:22.721Z,7.67
2023-05-03T20:05:51.526Z,7.58
2023-05-03T20:08:18.178Z,7.53
2023-05-03T20:10:46.401Z,7.50
2023-05-03T20:13:13.476Z,7.43
2023-05-03T20:15:40.227Z,7.37
2023-05-03T20:18:07.159Z,7.31
2023-05-03T20:20:33.798Z,7.33
2023-05-03T20:23:00.386Z,7.49
2023-05-03T20:25:27.287Z,7.62
2023-05-03T20:27:53.918Z,7.75
2023-05-03T20:30:20.572Z,7.84
2023-05-03T20:32:47.300Z,7.87
2023-05-03T20:35:14.178Z,7.90
2023-05-03T20:37:40.834Z,7.87
2023-05-03T20:40:07.875Z,7.83
2023-05-03T20:42:54.684Z,7.83
2023-05-03T20:45:21.379Z,7.81
2023-05-03T20:47:48.079Z,7.87
2023-05-03T20:50:14.914Z,7.82
2023-05-03T20:52:41.827Z,7.83
2023-05-03T20:55:08.601Z,7.91
2023-05-03T20:57:39.301Z,7.92
2023-05-03T21:00:07.234Z,7.91
2023-05-03T21:02:33.983Z,7.90
2023-05-03T21:05:00.825Z,7.92
2023-05-03T21:07:28.418Z,7.88
2023-05-03T21:09:55.040Z,7.86
2023-05-03T21:12:21.662Z,7.82
2023-05-03T21:14:48.247Z,7.80
2023-05-03T21:17:14.985Z,7.76
2023-05-03T21:19:41.544Z,7.81
2023-05-03T21:22:08.916Z,7.70
2023-05-03T21:24:35.572Z,7.80
2023-05-03T21:27:02.705Z,7.71
2023-05-03T21:29:29.278Z,7.73
2023-05-03T21:31:55.937Z,7.64
2023-05-03T21:34:22.533Z,7.64
2023-05-03T21:36:49.112Z,7.68
2023-05-03T21:39:16.081Z,7.67
2023-05-03T21:41:43.680Z,7.65
2023-05-03T21:44:10.384Z,7.68
2023-05-03T21:46:36.958Z,7.66
2023-05-03T21:49:03.554Z,7.67
2023-05-03T21:51:30.924Z,7.67
2023-05-03T21:53:57.483Z,7.63
2023-05-03T21:56:24.019Z,7.60
2023-05-03T21:58:50.575Z,7.55
2023-05-03T22:01:19.497Z,7.52
2023-05-03T22:03:46.333Z,7.50
2023-05-03T22:06:12.939Z,7.47
2023-05-03T22:08:39.586Z,7.42
2023-05-03T22:11:09.300Z,7.35
2023-05-03T22:13:50.277Z,7.30
2023-05-03T22:16:21.502Z,7.27
2023-05-03T22:18:48.098Z,7.25
2023-05-03T22:21:14.654Z,7.30
2023-05-03T22:23:41.209Z,7.31
2023-05-03T22:26:07.814Z,7.34
2023-05-03T22:28:34.546Z,7.38
2023-05-03T22:31:01.108Z,7.39
2023-05-03T22:33:27.835Z,7.42
2023-05-03T22:35:54.379Z,7.46
2023-05-03T22:38:21.000Z,7.43
2023-05-03T22:40:47.547Z,7.45
2023-05-03T22:43:14.098Z,7.45
2023-05-03T22:45:40.895Z,7.47
2023-05-03T22:48:07.617Z,7.40
2023-05-03T22:50:34.391Z,7.41
2023-05-03T22:53:01.292Z,7.43
2023-05-03T22:55:29.190Z,7.44
2023-05-03T22:57:55.817Z,7.43
2023-05-03T23:00:22.574Z,7.39
2023-05-03T23:02:49.296Z,7.44
2023-05-03T23:05:16.080Z,7.36
2023-05-03T23:07:43.259Z,7.35
2023-05-03T23:10:09.994Z,7.35
2023-05-03T23:12:36.800Z,7.37
2023-05-03T23:15:03.500Z,7.36
2023-05-03T23:17:30.455Z,7.30
2023-05-03T23:19:57.132Z,7.32
2023-05-03T23:22:23.673Z,7.25
2023-05-03T23:24:50.578Z,7.24
2023-05-03T23:27:17.203Z,7.21
2023-05-03T23:29:44.354Z,7.16
2023-05-03T23:32:11.471Z,7.14
2023-05-03T23:34:38.707Z,7.11
2023-05-03T23:37:05.238Z,7.11
2023-05-03T23:39:31.881Z,7.04
2023-05-03T23:41:58.992Z,7.00
2023-05-03T23:44:35.170Z,6.94
2023-05-03T23:47:09.070Z,6.86
2023-05-03T23:49:35.758Z,6.80
2023-05-03T23:52:02.327Z,6.76
2023-05-03T23:54:28.988Z,6.72
2023-05-03T23:56:55.562Z,6.70
2023-05-03T23:59:22.118Z,6.67
